Akron Canton Regional Airport
KCAK : now visible

Airfield :











YOU CAN JOIN US ON...

 
LOGIN :

Register | Disclaimer

   EN    FR    IT 

 









Legend :    VFR   Marginal VFR   IFR   Intensive IFR   Very Intensive IFR
Visi :
Ceiling :
>= 8 km
>= 3000ft
5 to 8 km
1000 to 3000 ft
1500m to 5 km
500 to 1000 ft
800 to 1500m
200 to 500 ft
< 800m
< 200 ft
Symbols :   Thunderstorms  Fog  Heavy snow  Heavy precipitations  Wind > 20 kt






- Airport Elevation : 1228 ft
- IATA code : CAK


KCAK - Akron Canton Regional

CURRENT METAR :
  • 250951Z COR 18008KT 10SM SCT130 SCT250 19/15 A3018 RMK AO2 SLPNO T01940150 $

EXPIRED METARs :
  • 250851Z COR 19010KT 10SM FEW130 SCT250 20/15 A3014 RMK AO2 SLPNO T02000150 $
  • 250751Z COR 19013KT 10SM SCT250 21/16 A3014 RMK AO2 SLPNO T02110156 $

TAF KCAK
Valid from the 25 at 06:00 until the 26 at 06:00 UTC


250539Z 2506/2606 18010KT P6SM BKN250
FM251200 19012G20KT P6SM BKN100
FM260000 20016G23KT 6SM -SHRA OVC050
KZOB FIR / North America



MET'MAP, your aeronautical weather chart ! - Copyright ORBIFLY December 2007 - Disclaimer

ORBIFLY MET'MAP TEAM :

Programming & Development : Alexandra Zaïnal
Concept & original design : Baudouin d'Aumeries
Assistance for programming : Marc-Olivier Méhu
Technical & hardware support : Manuel Goepfert

Contact : metmap@orbifly.com




SOURCES & CREDITS :

   NOAA       Earth
Advisory